Pagrindinis puslapis
METAR-TAF:

METAR-TAF

Oro uostai :

Nosy Be, Madagaskaras

platuma: 13-19S, ilguma: 048-19E, Aukštis: 10 m

Dabartinis oras

Ataskaita buvo paskelbta 2 valandos ir 17 minutes, ne 03:00 UTC
Ramus vėjas
Temperatūra 20°C
Slėgis 1014 hPa
Matomumas 10 km arba daugiau
Su prošvaistėmis ne aukštis 2000 ft

METAR: FMNN 140300Z 00000KT 9999 BKN020 20/// Q1014

Laikas: 08:17 (05:17 UTC)

Prognozė

Ataskaita buvo paskelbta 6 valandos ir 17 minutes, ne 23:00 UTC
Prognozė galioja nuo 14 metu 00 UTC su 14 metu 24 UTC
Vėjas 5 kt nuo kintamojo kryptimis
Matomumas 10 km arba daugiau
Mažai debesys ne aukštis 2000 ft
Su prošvaistėmis ne aukštis 4000 ft
Tikimybė 30% :
Laikinai
nuo 14 metu 16 UTC su 14 metu 24 UTC
Matomumas: 4500 m
lietus

TAF: FMNN 132300Z 1400/1424 VRB05KT 9999 FEW020 BKN040 PROB30 TEMPO 1416/1424 4500 SHRA

Orai ataskaitas ir orų prognozės (METAR, TAF).

turimą stotys yra geltonos ir raudonos taškus žemėlapyje.

Perkelti pele per norėdami pamatyti stoties vardą.

Tada spustelėkite, norėdami matyti oro stebėjimo ir prognozės.

Norėdami pakeisti žemėlapį: spustelėkite ant žalios mygtukų su juodo kryžiaus žemyn,; žalią mygtuką su brūkšneliu, jei norite nutolinti; arba žalių rodyklių gretimoms žemėlapius.


METAR-TAF: